sensor_id;sensor_type;location;lat;lon;timestamp;pressure;altitude;pressure_sealevel;temperature
48854;BMP280;34673;52.808;17.856;2023-05-29T00:00:49;100731.22;;;12.64
48854;BMP280;34673;52.808;17.856;2023-05-29T00:03:16;100730.38;;;12.63
48854;BMP280;34673;52.808;17.856;2023-05-29T00:05:45;100720.91;;;12.56
48854;BMP280;34673;52.808;17.856;2023-05-29T00:08:12;100729.56;;;12.60
48854;BMP280;34673;52.808;17.856;2023-05-29T00:10:39;100729.59;;;12.55
48854;BMP280;34673;52.808;17.856;2023-05-29T00:13:07;100746.94;;;12.50
48854;BMP280;34673;52.808;17.856;2023-05-29T00:15:34;100738.31;;;12.50
48854;BMP280;34673;52.808;17.856;2023-05-29T00:18:02;100721.03;;;12.46
48854;BMP280;34673;52.808;17.856;2023-05-29T00:20:29;100724.63;;;12.35
48854;BMP280;34673;52.808;17.856;2023-05-29T00:22:57;100730.63;;;12.37
48854;BMP280;34673;52.808;17.856;2023-05-29T00:25:24;100730.66;;;12.36
48854;BMP280;34673;52.808;17.856;2023-05-29T00:27:51;100722.94;;;12.28
48854;BMP280;34673;52.808;17.856;2023-05-29T00:30:18;100740.22;;;12.29
48854;BMP280;34673;52.808;17.856;2023-05-29T00:32:45;100729.03;;;12.21
48854;BMP280;34673;52.808;17.856;2023-05-29T00:35:13;100723.06;;;12.16
48854;BMP280;34673;52.808;17.856;2023-05-29T00:37:40;100733.44;;;12.16
48854;BMP280;34673;52.808;17.856;2023-05-29T00:40:08;100741.22;;;12.16
48854;BMP280;34673;52.808;17.856;2023-05-29T00:42:36;100736.88;;;12.15
48854;BMP280;34673;52.808;17.856;2023-05-29T00:45:03;100728.25;;;12.16
48854;BMP280;34673;52.808;17.856;2023-05-29T00:47:31;100738.53;;;12.25
48854;BMP280;34673;52.808;17.856;2023-05-29T00:49:58;100733.31;;;12.28
48854;BMP280;34673;52.808;17.856;2023-05-29T00:52:26;100729.88;;;12.26
48854;BMP280;34673;52.808;17.856;2023-05-29T00:54:54;100735.09;;;12.23
48854;BMP280;34673;52.808;17.856;2023-05-29T00:57:21;100736.81;;;12.21
48854;BMP280;34673;52.808;17.856;2023-05-29T00:59:50;100742.00;;;12.24
48854;BMP280;34673;52.808;17.856;2023-05-29T01:02:18;100731.69;;;12.15
48854;BMP280;34673;52.808;17.856;2023-05-29T01:04:47;100736.94;;;12.09
48854;BMP280;34673;52.808;17.856;2023-05-29T01:07:15;100742.13;;;12.09
48854;BMP280;34673;52.808;17.856;2023-05-29T01:09:43;100744.72;;;12.07
48854;BMP280;34673;52.808;17.856;2023-05-29T01:15:09;100742.13;;;12.09
48854;BMP280;34673;52.808;17.856;2023-05-29T01:18:02;100743.00;;;12.11
48854;BMP280;34673;52.808;17.856;2023-05-29T01:20:50;100738.63;;;12.13
48854;BMP280;34673;52.808;17.856;2023-05-29T01:29:16;100749.16;;;11.94
48854;BMP280;34673;52.808;17.856;2023-05-29T01:31:45;100745.69;;;11.95
48854;BMP280;34673;52.808;17.856;2023-05-29T01:34:13;100753.47;;;11.94
48854;BMP280;34673;52.808;17.856;2023-05-29T01:36:42;100752.66;;;11.84
48854;BMP280;34673;52.808;17.856;2023-05-29T01:39:10;100750.97;;;11.77
48854;BMP280;34673;52.808;17.856;2023-05-29T01:41:37;100750.13;;;11.78
48854;BMP280;34673;52.808;17.856;2023-05-29T01:44:07;100754.41;;;11.77
48854;BMP280;34673;52.808;17.856;2023-05-29T01:46:42;100749.25;;;11.76
48854;BMP280;34673;52.808;17.856;2023-05-29T01:49:10;100744.06;;;11.76
48854;BMP280;34673;52.808;17.856;2023-05-29T01:51:42;100731.97;;;11.75
48854;BMP280;34673;52.808;17.856;2023-05-29T01:54:09;100740.66;;;11.71
48854;BMP280;34673;52.808;17.856;2023-05-29T01:56:37;100745.00;;;11.66
48854;BMP280;34673;52.808;17.856;2023-05-29T01:59:06;100738.06;;;11.66
48854;BMP280;34673;52.808;17.856;2023-05-29T02:01:33;100742.34;;;11.72
48854;BMP280;34673;52.808;17.856;2023-05-29T02:04:00;100744.13;;;11.70
48854;BMP280;34673;52.808;17.856;2023-05-29T02:06:28;100744.09;;;11.73
48854;BMP280;34673;52.808;17.856;2023-05-29T02:08:55;100742.34;;;11.78
48854;BMP280;34673;52.808;17.856;2023-05-29T02:11:22;100732.81;;;11.79
48854;BMP280;34673;52.808;17.856;2023-05-29T02:13:49;100738.91;;;11.73
48854;BMP280;34673;52.808;17.856;2023-05-29T02:16:18;100742.41;;;11.66
48854;BMP280;34673;52.808;17.856;2023-05-29T02:18:47;100737.28;;;11.57
48854;BMP280;34673;52.808;17.856;2023-05-29T02:21:14;100733.88;;;11.51
48854;BMP280;34673;52.808;17.856;2023-05-29T02:23:42;100738.13;;;11.59
48854;BMP280;34673;52.808;17.856;2023-05-29T02:26:09;100738.97;;;11.61
48854;BMP280;34673;52.808;17.856;2023-05-29T02:28:37;100735.53;;;11.59
48854;BMP280;34673;52.808;17.856;2023-05-29T02:31:04;100742.47;;;11.50
48854;BMP280;34673;52.808;17.856;2023-05-29T02:33:32;100744.25;;;11.44
48854;BMP280;34673;52.808;17.856;2023-05-29T02:35:59;100736.56;;;11.35
48854;BMP280;34673;52.808;17.856;2023-05-29T02:38:26;100734.78;;;11.40
48854;BMP280;34673;52.808;17.856;2023-05-29T02:40:53;100730.47;;;11.37
48854;BMP280;34673;52.808;17.856;2023-05-29T02:43:24;100733.03;;;11.43
48854;BMP280;34673;52.808;17.856;2023-05-29T02:45:52;100725.25;;;11.46
48854;BMP280;34673;52.808;17.856;2023-05-29T02:48:19;100736.47;;;11.47
48854;BMP280;34673;52.808;17.856;2023-05-29T02:50:46;100734.75;;;11.49
48854;BMP280;34673;52.808;17.856;2023-05-29T02:53:14;100732.16;;;11.47
48854;BMP280;34673;52.808;17.856;2023-05-29T02:55:41;100732.16;;;11.44
48854;BMP280;34673;52.808;17.856;2023-05-29T02:58:09;100733.03;;;11.46
48854;BMP280;34673;52.808;17.856;2023-05-29T03:00:38;100730.44;;;11.46
48854;BMP280;34673;52.808;17.856;2023-05-29T03:03:05;100726.09;;;11.51
48854;BMP280;34673;52.808;17.856;2023-05-29T03:05:33;100716.59;;;11.47
48854;BMP280;34673;52.808;17.856;2023-05-29T03:08:00;100721.78;;;11.47
48854;BMP280;34673;52.808;17.856;2023-05-29T03:10:28;100716.56;;;11.50
48854;BMP280;34673;52.808;17.856;2023-05-29T03:12:55;100724.31;;;11.58
48854;BMP280;34673;52.808;17.856;2023-05-29T03:15:22;100730.31;;;11.65
48854;BMP280;34673;52.808;17.856;2023-05-29T03:17:49;100734.59;;;11.70
48854;BMP280;34673;52.808;17.856;2023-05-29T03:20:21;100740.66;;;11.71
48854;BMP280;34673;52.808;17.856;2023-05-29T03:22:52;100735.47;;;11.71
48854;BMP280;34673;52.808;17.856;2023-05-29T03:25:20;100728.53;;;11.76
48854;BMP280;34673;52.808;17.856;2023-05-29T03:27:48;100732.78;;;11.85
48854;BMP280;34673;52.808;17.856;2023-05-29T03:30:18;100742.28;;;11.84
48854;BMP280;34673;52.808;17.856;2023-05-29T03:32:48;100737.94;;;11.83
48854;BMP280;34673;52.808;17.856;2023-05-29T03:35:17;100742.25;;;11.90
48854;BMP280;34673;52.808;17.856;2023-05-29T03:37:44;100735.31;;;11.95
48854;BMP280;34673;52.808;17.856;2023-05-29T03:40:12;100737.00;;;12.03
48854;BMP280;34673;52.808;17.856;2023-05-29T03:42:39;100742.16;;;12.06
48854;BMP280;34673;52.808;17.856;2023-05-29T03:45:07;100734.34;;;12.07
48854;BMP280;34673;52.808;17.856;2023-05-29T03:47:37;100736.97;;;12.06
48854;BMP280;34673;52.808;17.856;2023-05-29T03:50:06;100745.56;;;12.14
48854;BMP280;34673;52.808;17.856;2023-05-29T03:52:35;100745.53;;;12.17
48854;BMP280;34673;52.808;17.856;2023-05-29T03:55:08;100748.94;;;12.22
48854;BMP280;34673;52.808;17.856;2023-05-29T03:57:36;100762.72;;;12.27
48854;BMP280;34673;52.808;17.856;2023-05-29T04:00:03;100760.97;;;12.29
48854;BMP280;34673;52.808;17.856;2023-05-29T04:02:39;100754.91;;;12.33
48854;BMP280;34673;52.808;17.856;2023-05-29T04:05:07;100755.72;;;12.38
48854;BMP280;34673;52.808;17.856;2023-05-29T04:07:36;100765.19;;;12.44
48854;BMP280;34673;52.808;17.856;2023-05-29T04:10:07;100762.53;;;12.49
48854;BMP280;34673;52.808;17.856;2023-05-29T04:12:35;100754.69;;;12.53
48854;BMP280;34673;52.808;17.856;2023-05-29T04:15:02;100771.00;;;12.66
48854;BMP280;34673;52.808;17.856;2023-05-29T04:17:29;100767.53;;;12.67
48854;BMP280;34673;52.808;17.856;2023-05-29T04:19:57;100757.13;;;12.70
48854;BMP280;34673;52.808;17.856;2023-05-29T04:22:24;100765.72;;;12.78
48854;BMP280;34673;52.808;17.856;2023-05-29T04:24:52;100758.69;;;12.86
48854;BMP280;34673;52.808;17.856;2023-05-29T04:27:19;100767.25;;;12.95
48854;BMP280;34673;52.808;17.856;2023-05-29T04:29:46;100758.47;;;13.05
48854;BMP280;34673;52.808;17.856;2023-05-29T04:32:13;100755.81;;;13.11
48854;BMP280;34673;52.808;17.856;2023-05-29T04:34:41;100751.38;;;13.19
48854;BMP280;34673;52.808;17.856;2023-05-29T04:37:14;100761.75;;;13.22
48854;BMP280;34673;52.808;17.856;2023-05-29T04:39:42;100774.63;;;13.33
48854;BMP280;34673;52.808;17.856;2023-05-29T04:42:11;100766.75;;;13.38
48854;BMP280;34673;52.808;17.856;2023-05-29T04:44:39;100758.06;;;13.42
48854;BMP280;34673;52.808;17.856;2023-05-29T04:47:06;100760.56;;;13.48
48854;BMP280;34673;52.808;17.856;2023-05-29T04:49:34;100757.91;;;13.51
48854;BMP280;34673;52.808;17.856;2023-05-29T04:52:04;100757.00;;;13.53
48854;BMP280;34673;52.808;17.856;2023-05-29T04:54:32;100763.00;;;13.60
48854;BMP280;34673;52.808;17.856;2023-05-29T04:57:00;100757.72;;;13.66
48854;BMP280;34673;52.808;17.856;2023-05-29T04:59:32;100761.94;;;13.73
48854;BMP280;34673;52.808;17.856;2023-05-29T05:02:00;100766.16;;;13.81
48854;BMP280;34673;52.808;17.856;2023-05-29T05:04:27;100768.66;;;13.87
48854;BMP280;34673;52.808;17.856;2023-05-29T05:06:55;100760.84;;;13.87
48854;BMP280;34673;52.808;17.856;2023-05-29T05:09:23;100766.78;;;13.98
48854;BMP280;34673;52.808;17.856;2023-05-29T05:11:51;100770.19;;;14.02
48854;BMP280;34673;52.808;17.856;2023-05-29T05:14:18;100755.31;;;14.08
48854;BMP280;34673;52.808;17.856;2023-05-29T05:16:46;100759.56;;;14.15
48854;BMP280;34673;52.808;17.856;2023-05-29T05:19:14;100748.19;;;14.23
48854;BMP280;34673;52.808;17.856;2023-05-29T05:21:42;100759.31;;;14.29
48854;BMP280;34673;52.808;17.856;2023-05-29T05:24:09;100760.09;;;14.36
48854;BMP280;34673;52.808;17.856;2023-05-29T05:26:39;100762.59;;;14.42
48854;BMP280;34673;52.808;17.856;2023-05-29T05:29:06;100762.41;;;14.51
48854;BMP280;34673;52.808;17.856;2023-05-29T05:31:36;100766.66;;;14.58
48854;BMP280;34673;52.808;17.856;2023-05-29T05:34:04;100756.19;;;14.61
48854;BMP280;34673;52.808;17.856;2023-05-29T05:36:31;100768.97;;;14.75
48854;BMP280;34673;52.808;17.856;2023-05-29T05:39:06;100767.91;;;14.84
48854;BMP280;34673;52.808;17.856;2023-05-29T05:41:34;100777.28;;;14.93
48854;BMP280;34673;52.808;17.856;2023-05-29T05:44:01;100771.13;;;14.98
48854;BMP280;34673;52.808;17.856;2023-05-29T05:46:43;100781.22;;;15.14
48854;BMP280;34673;52.808;17.856;2023-05-29T05:49:11;100781.09;;;15.20
48854;BMP280;34673;52.808;17.856;2023-05-29T05:51:40;100780.88;;;15.32
48854;BMP280;34673;52.808;17.856;2023-05-29T05:54:07;100777.19;;;15.42
48854;BMP280;34673;52.808;17.856;2023-05-29T05:56:35;100775.28;;;15.50
48854;BMP280;34673;52.808;17.856;2023-05-29T05:59:02;100775.97;;;15.59
48854;BMP280;34673;52.808;17.856;2023-05-29T06:01:29;100769.75;;;15.64
48854;BMP280;34673;52.808;17.856;2023-05-29T06:03:57;100784.97;;;15.84
48854;BMP280;34673;52.808;17.856;2023-05-29T06:06:25;100783.03;;;15.92
48854;BMP280;34673;52.808;17.856;2023-05-29T06:08:53;100787.84;;;16.11
48854;BMP280;34673;52.808;17.856;2023-05-29T06:11:21;100789.25;;;16.24
48854;BMP280;34673;52.808;17.856;2023-05-29T06:13:49;100794.88;;;16.43
48854;BMP280;34673;52.808;17.856;2023-05-29T06:16:27;100788.38;;;16.58
48854;BMP280;34673;52.808;17.856;2023-05-29T06:18:54;100783.59;;;16.75
48854;BMP280;34673;52.808;17.856;2023-05-29T06:21:22;100784.88;;;16.93
48854;BMP280;34673;52.808;17.856;2023-05-29T06:23:54;100790.44;;;17.12
48854;BMP280;34673;52.808;17.856;2023-05-29T06:26:22;100777.66;;;17.33
48854;BMP280;34673;52.808;17.856;2023-05-29T06:28:53;100780.72;;;17.47
48854;BMP280;34673;52.808;17.856;2023-05-29T06:31:20;100774.94;;;17.65
48854;BMP280;34673;52.808;17.856;2023-05-29T06:33:48;100786.38;;;17.91
48854;BMP280;34673;52.808;17.856;2023-05-29T06:36:16;100791.88;;;18.10
48854;BMP280;34673;52.808;17.856;2023-05-29T06:38:46;100785.09;;;18.31
48854;BMP280;34673;52.808;17.856;2023-05-29T06:41:15;100786.19;;;18.50
48854;BMP280;34673;52.808;17.856;2023-05-29T06:43:43;100792.72;;;18.64
48854;BMP280;34673;52.808;17.856;2023-05-29T06:46:12;100788.03;;;18.73
48854;BMP280;34673;52.808;17.856;2023-05-29T06:48:40;100787.34;;;18.93
48854;BMP280;34673;52.808;17.856;2023-05-29T06:51:07;100791.25;;;19.07
48854;BMP280;34673;52.808;17.856;2023-05-29T06:53:40;100787.09;;;19.24
48854;BMP280;34673;52.808;17.856;2023-05-29T06:56:11;100776.94;;;19.39
48854;BMP280;34673;52.808;17.856;2023-05-29T06:58:38;100778.06;;;19.55
48854;BMP280;34673;52.808;17.856;2023-05-29T07:01:06;100785.44;;;19.69
48854;BMP280;34673;52.808;17.856;2023-05-29T07:03:36;100784.84;;;19.84
48854;BMP280;34673;52.808;17.856;2023-05-29T07:06:04;100781.81;;;19.93
48854;BMP280;34673;52.808;17.856;2023-05-29T07:08:33;100776.19;;;20.03
48854;BMP280;34673;52.808;17.856;2023-05-29T07:11:01;100780.81;;;19.98
48854;BMP280;34673;52.808;17.856;2023-05-29T07:13:29;100783.72;;;20.12
48854;BMP280;34673;52.808;17.856;2023-05-29T07:15:56;100782.97;;;20.30
48854;BMP280;34673;52.808;17.856;2023-05-29T07:18:29;100770.09;;;20.45
48854;BMP280;34673;52.808;17.856;2023-05-29T07:20:59;100778.28;;;20.59
48854;BMP280;34673;52.808;17.856;2023-05-29T07:23:29;100771.75;;;20.68
48854;BMP280;34673;52.808;17.856;2023-05-29T07:25:56;100777.06;;;20.87
48854;BMP280;34673;52.808;17.856;2023-05-29T07:28:27;100774.19;;;20.93
48854;BMP280;34673;52.808;17.856;2023-05-29T07:30:54;100788.34;;;21.09
48854;BMP280;34673;52.808;17.856;2023-05-29T07:33:23;100783.38;;;21.22
48854;BMP280;34673;52.808;17.856;2023-05-29T07:35:53;100782.13;;;21.31
48854;BMP280;34673;52.808;17.856;2023-05-29T07:38:20;100771.88;;;21.43
48854;BMP280;34673;52.808;17.856;2023-05-29T07:40:48;100776.44;;;21.59
48854;BMP280;34673;52.808;17.856;2023-05-29T07:43:33;100780.41;;;21.67
48854;BMP280;34673;52.808;17.856;2023-05-29T07:46:04;100777.34;;;21.77
48854;BMP280;34673;52.808;17.856;2023-05-29T07:48:31;100768.19;;;21.66
48854;BMP280;34673;52.808;17.856;2023-05-29T07:50:59;100780.13;;;21.74
48854;BMP280;34673;52.808;17.856;2023-05-29T07:53:29;100786.09;;;21.96
48854;BMP280;34673;52.808;17.856;2023-05-29T07:55:57;100788.72;;;22.13
48854;BMP280;34673;52.808;17.856;2023-05-29T07:58:25;100793.44;;;22.26
48854;BMP280;34673;52.808;17.856;2023-05-29T08:00:52;100791.41;;;22.31
48854;BMP280;34673;52.808;17.856;2023-05-29T08:03:19;100779.16;;;22.30
48854;BMP280;34673;52.808;17.856;2023-05-29T08:08:33;100795.16;;;22.62
48854;BMP280;34673;52.808;17.856;2023-05-29T08:11:00;100797.13;;;22.74
48854;BMP280;34673;52.808;17.856;2023-05-29T08:13:30;100796.66;;;22.83
48854;BMP280;34673;52.808;17.856;2023-05-29T08:15:57;100794.31;;;22.94
48854;BMP280;34673;52.808;17.856;2023-05-29T08:18:26;100805.34;;;23.03
48854;BMP280;34673;52.808;17.856;2023-05-29T08:20:53;100802.81;;;23.17
48854;BMP280;34673;52.808;17.856;2023-05-29T08:23:21;100805.13;;;23.23
48854;BMP280;34673;52.808;17.856;2023-05-29T08:25:48;100805.75;;;23.28
48854;BMP280;34673;52.808;17.856;2023-05-29T08:28:15;100801.66;;;23.38
48854;BMP280;34673;52.808;17.856;2023-05-29T08:30:42;100801.31;;;23.44
48854;BMP280;34673;52.808;17.856;2023-05-29T08:33:10;100799.47;;;23.47
48854;BMP280;34673;52.808;17.856;2023-05-29T08:35:37;100793.53;;;23.59
48854;BMP280;34673;52.808;17.856;2023-05-29T08:38:04;100804.97;;;23.75
48854;BMP280;34673;52.808;17.856;2023-05-29T08:40:31;100810.69;;;23.83
48854;BMP280;34673;52.808;17.856;2023-05-29T08:43:10;100807.69;;;23.89
48854;BMP280;34673;52.808;17.856;2023-05-29T08:45:42;100809.59;;;24.02
48854;BMP280;34673;52.808;17.856;2023-05-29T08:48:11;100808.34;;;24.09
48854;BMP280;34673;52.808;17.856;2023-05-29T08:50:45;100799.13;;;24.16
48854;BMP280;34673;52.808;17.856;2023-05-29T08:53:14;100801.22;;;24.25
48854;BMP280;34673;52.808;17.856;2023-05-29T08:55:42;100789.53;;;24.29
48854;BMP280;34673;52.808;17.856;2023-05-29T08:58:10;100799.75;;;24.36
48854;BMP280;34673;52.808;17.856;2023-05-29T09:00:38;100806.06;;;24.49
48854;BMP280;34673;52.808;17.856;2023-05-29T09:03:05;100805.69;;;24.55
48854;BMP280;34673;52.808;17.856;2023-05-29T09:05:33;100803.63;;;24.60
48854;BMP280;34673;52.808;17.856;2023-05-29T09:08:00;100806.66;;;24.68
48854;BMP280;34673;52.808;17.856;2023-05-29T09:10:29;100790.41;;;24.74
48854;BMP280;34673;52.808;17.856;2023-05-29T09:12:58;100810.75;;;24.88
48854;BMP280;34673;52.808;17.856;2023-05-29T09:15:25;100805.56;;;25.01
48854;BMP280;34673;52.808;17.856;2023-05-29T09:17:57;100797.22;;;25.07
48854;BMP280;34673;52.808;17.856;2023-05-29T09:20:25;100802.31;;;25.10
48854;BMP280;34673;52.808;17.856;2023-05-29T09:22:57;100800.63;;;25.09
48854;BMP280;34673;52.808;17.856;2023-05-29T09:25:29;100801.13;;;25.16
48854;BMP280;34673;52.808;17.856;2023-05-29T09:28:00;100802.31;;;25.10
48854;BMP280;34673;52.808;17.856;2023-05-29T09:30:40;100804.06;;;25.11
48854;BMP280;34673;52.808;17.856;2023-05-29T09:33:10;100810.31;;;25.25
48854;BMP280;34673;52.808;17.856;2023-05-29T09:35:43;100796.88;;;25.28
48854;BMP280;34673;52.808;17.856;2023-05-29T09:38:12;100804.44;;;25.34
48854;BMP280;34673;52.808;17.856;2023-05-29T09:40:54;100799.16;;;25.34
48854;BMP280;34673;52.808;17.856;2023-05-29T09:43:25;100807.84;;;25.36
48854;BMP280;34673;52.808;17.856;2023-05-29T09:45:52;100797.06;;;25.39
48854;BMP280;34673;52.808;17.856;2023-05-29T09:48:23;100806.00;;;25.51
48854;BMP280;34673;52.808;17.856;2023-05-29T09:50:50;100799.28;;;25.59
48854;BMP280;34673;52.808;17.856;2023-05-29T09:53:22;100801.13;;;25.45
48854;BMP280;34673;52.808;17.856;2023-05-29T09:55:52;100790.63;;;25.29
48854;BMP280;34673;52.808;17.856;2023-05-29T09:58:21;100797.66;;;25.30
48854;BMP280;34673;52.808;17.856;2023-05-29T10:00:49;100798.56;;;25.14
48854;BMP280;34673;52.808;17.856;2023-05-29T10:03:19;100794.66;;;24.77
48854;BMP280;34673;52.808;17.856;2023-05-29T10:05:54;100800.56;;;24.52
48854;BMP280;34673;52.808;17.856;2023-05-29T10:08:32;100803.31;;;24.34
48854;BMP280;34673;52.808;17.856;2023-05-29T10:11:03;100805.06;;;24.20
48854;BMP280;34673;52.808;17.856;2023-05-29T10:13:38;100805.06;;;24.20
48854;BMP280;34673;52.808;17.856;2023-05-29T10:16:11;100806.25;;;24.46
48854;BMP280;34673;52.808;17.856;2023-05-29T10:18:44;100795.47;;;24.49
48854;BMP280;34673;52.808;17.856;2023-05-29T10:21:13;100791.34;;;24.59
48854;BMP280;34673;52.808;17.856;2023-05-29T10:23:45;100802.09;;;24.56
48854;BMP280;34673;52.808;17.856;2023-05-29T10:26:27;100801.56;;;24.65
48854;BMP280;34673;52.808;17.856;2023-05-29T10:35:00;100798.75;;;25.11
48854;BMP280;34673;52.808;17.856;2023-05-29T10:37:53;100803.09;;;24.98
48854;BMP280;34673;52.808;17.856;2023-05-29T10:40:26;100796.19;;;25.10
48854;BMP280;34673;52.808;17.856;2023-05-29T10:42:54;100797.09;;;25.25
48854;BMP280;34673;52.808;17.856;2023-05-29T10:47:55;100797.03;;;24.82
48854;BMP280;34673;52.808;17.856;2023-05-29T10:50:38;100793.41;;;24.54
48854;BMP280;34673;52.808;17.856;2023-05-29T10:53:08;100786.06;;;24.59
48854;BMP280;34673;52.808;17.856;2023-05-29T10:55:39;100781.94;;;24.84
48854;BMP280;34673;52.808;17.856;2023-05-29T10:58:20;100790.53;;;25.16
48854;BMP280;34673;52.808;17.856;2023-05-29T11:00:48;100799.34;;;25.31
48854;BMP280;34673;52.808;17.856;2023-05-29T11:03:30;100787.41;;;24.95
48854;BMP280;34673;52.808;17.856;2023-05-29T11:08:44;100787.19;;;24.69
48854;BMP280;34673;52.808;17.856;2023-05-29T11:11:15;100785.22;;;24.87
48854;BMP280;34673;52.808;17.856;2023-05-29T11:13:56;100778.13;;;25.02
48854;BMP280;34673;52.808;17.856;2023-05-29T11:18:52;100769.06;;;25.35
48854;BMP280;34673;52.808;17.856;2023-05-29T11:24:00;100778.44;;;25.68
48854;BMP280;34673;52.808;17.856;2023-05-29T11:26:35;100762.38;;;25.56
48854;BMP280;34673;52.808;17.856;2023-05-29T11:29:04;100779.41;;;25.25
48854;BMP280;34673;52.808;17.856;2023-05-29T11:31:33;100780.31;;;24.95
48854;BMP280;34673;52.808;17.856;2023-05-29T11:34:03;100771.16;;;24.87
48854;BMP280;34673;52.808;17.856;2023-05-29T11:36:33;100775.47;;;24.59
48854;BMP280;34673;52.808;17.856;2023-05-29T11:39:03;100776.44;;;24.12
48854;BMP280;34673;52.808;17.856;2023-05-29T11:41:30;100781.06;;;23.93
48854;BMP280;34673;52.808;17.856;2023-05-29T11:44:02;100781.94;;;23.77
48854;BMP280;34673;52.808;17.856;2023-05-29T11:46:32;100774.78;;;23.95
48854;BMP280;34673;52.808;17.856;2023-05-29T11:49:01;100777.09;;;24.16
48854;BMP280;34673;52.808;17.856;2023-05-29T11:51:28;100786.81;;;24.15
48854;BMP280;34673;52.808;17.856;2023-05-29T11:53:55;100784.19;;;24.15
48854;BMP280;34673;52.808;17.856;2023-05-29T11:56:29;100775.09;;;24.05
48854;BMP280;34673;52.808;17.856;2023-05-29T11:58:58;100763.81;;;24.17
48854;BMP280;34673;52.808;17.856;2023-05-29T12:01:27;100762.34;;;24.27
48854;BMP280;34673;52.808;17.856;2023-05-29T12:03:55;100764.97;;;24.27
48854;BMP280;34673;52.808;17.856;2023-05-29T12:06:35;100774.91;;;24.08
48854;BMP280;34673;52.808;17.856;2023-05-29T12:09:05;100767.72;;;24.10
48854;BMP280;34673;52.808;17.856;2023-05-29T12:11:34;100755.47;;;24.09
48854;BMP280;34673;52.808;17.856;2023-05-29T12:14:01;100763.81;;;24.17
48854;BMP280;34673;52.808;17.856;2023-05-29T12:16:30;100757.97;;;24.26
48854;BMP280;34673;52.808;17.856;2023-05-29T12:18:59;100756.09;;;24.28
48854;BMP280;34673;52.808;17.856;2023-05-29T12:21:26;100756.81;;;24.16
48854;BMP280;34673;52.808;17.856;2023-05-29T12:23:54;100762.66;;;23.91
48854;BMP280;34673;52.808;17.856;2023-05-29T12:26:41;100759.59;;;23.67
48854;BMP280;34673;52.808;17.856;2023-05-29T12:29:08;100762.31;;;23.50
48854;BMP280;34673;52.808;17.856;2023-05-29T12:31:35;100754.50;;;23.32
48854;BMP280;34673;52.808;17.856;2023-05-29T12:34:11;100759.44;;;23.38
48854;BMP280;34673;52.808;17.856;2023-05-29T12:36:42;100756.34;;;23.30
48854;BMP280;34673;52.808;17.856;2023-05-29T12:39:12;100763.16;;;23.18
48854;BMP280;34673;52.808;17.856;2023-05-29T12:41:39;100756.88;;;23.21
48854;BMP280;34673;52.808;17.856;2023-05-29T12:44:07;100756.88;;;23.21
48854;BMP280;34673;52.808;17.856;2023-05-29T12:46:38;100748.50;;;23.29
48854;BMP280;34673;52.808;17.856;2023-05-29T12:49:16;100756.13;;;23.51
48854;BMP280;34673;52.808;17.856;2023-05-29T12:51:45;100746.84;;;23.59
48854;BMP280;34673;52.808;17.856;2023-05-29T12:54:16;100743.44;;;23.73
48854;BMP280;34673;52.808;17.856;2023-05-29T12:56:44;100735.94;;;23.81
48854;BMP280;34673;52.808;17.856;2023-05-29T12:59:13;100734.28;;;23.95
48854;BMP280;34673;52.808;17.856;2023-05-29T13:01:41;100726.00;;;24.01
48854;BMP280;34673;52.808;17.856;2023-05-29T13:04:09;100731.28;;;24.01
48854;BMP280;34673;52.808;17.856;2023-05-29T13:06:39;100732.97;;;24.02
48854;BMP280;34673;52.808;17.856;2023-05-29T13:09:06;100735.91;;;23.97
48854;BMP280;34673;52.808;17.856;2023-05-29T13:11:35;100720.75;;;23.85
48854;BMP280;34673;52.808;17.856;2023-05-29T13:14:04;100728.44;;;23.74
48854;BMP280;34673;52.808;17.856;2023-05-29T13:16:31;100726.56;;;23.76
48854;BMP280;34673;52.808;17.856;2023-05-29T13:18:59;100732.50;;;23.79
48854;BMP280;34673;52.808;17.856;2023-05-29T13:21:26;100727.41;;;23.76
48854;BMP280;34673;52.808;17.856;2023-05-29T13:23:53;100734.03;;;23.67
48854;BMP280;34673;52.808;17.856;2023-05-29T13:26:21;100726.53;;;23.60
48854;BMP280;34673;52.808;17.856;2023-05-29T13:28:48;100725.34;;;23.50
48854;BMP280;34673;52.808;17.856;2023-05-29T13:31:16;100728.59;;;23.55
48854;BMP280;34673;52.808;17.856;2023-05-29T13:33:43;100734.53;;;23.58
48854;BMP280;34673;52.808;17.856;2023-05-29T13:36:10;100725.59;;;23.61
48854;BMP280;34673;52.808;17.856;2023-05-29T13:38:38;100723.84;;;23.61
48854;BMP280;34673;52.808;17.856;2023-05-29T13:41:05;100729.13;;;23.61
48854;BMP280;34673;52.808;17.856;2023-05-29T13:43:33;100719.91;;;23.53
48854;BMP280;34673;52.808;17.856;2023-05-29T13:46:11;100724.00;;;23.42
48854;BMP280;34673;52.808;17.856;2023-05-29T13:48:38;100722.28;;;23.41
48854;BMP280;34673;52.808;17.856;2023-05-29T13:51:05;100707.66;;;23.36
48854;BMP280;34673;52.808;17.856;2023-05-29T13:53:33;100713.59;;;23.39
48854;BMP280;34673;52.808;17.856;2023-05-29T13:56:00;100715.50;;;23.37
48854;BMP280;34673;52.808;17.856;2023-05-29T13:58:27;100722.47;;;23.38
48854;BMP280;34673;52.808;17.856;2023-05-29T14:00:54;100733.03;;;23.38
48854;BMP280;34673;52.808;17.856;2023-05-29T14:03:22;100721.63;;;23.38
48854;BMP280;34673;52.808;17.856;2023-05-29T14:05:52;100726.06;;;23.37
48854;BMP280;34673;52.808;17.856;2023-05-29T14:08:20;100735.00;;;23.35
48854;BMP280;34673;52.808;17.856;2023-05-29T14:10:47;100722.66;;;23.35
48854;BMP280;34673;52.808;17.856;2023-05-29T14:13:14;100737.81;;;23.32
48854;BMP280;34673;52.808;17.856;2023-05-29T14:15:41;100722.47;;;23.22
48854;BMP280;34673;52.808;17.856;2023-05-29T14:18:09;100726.72;;;23.25
48854;BMP280;34673;52.808;17.856;2023-05-29T14:20:36;100733.72;;;23.26
48854;BMP280;34673;52.808;17.856;2023-05-29T14:23:03;100726.72;;;23.25